Time;durP1;ratioP1;P1;durP2;ratioP2;P2;SDS_P1;SDS_P2;PMS_P1;PMS_P2;Temp;Humidity;BMP_temperature;BMP_pressure;BME280_temperature;BME280_humidity;BME280_pressure;Samples;Min_cycle;Max_cycle;Signal;HPM_P1;HPM_P2
2023/11/27 00:00:37;;;;;;;;;;;;;;;11.15;54.17;100176.50;4963777;27;98258;-64
2023/11/27 00:03:03;;;;;;;;;;;;;;;11.15;54.30;100170.31;4984447;27;98286;-64
2023/11/27 00:05:29;;;;;;;;;;;;;;;11.14;54.11;100161.41;4988772;27;100309;-67
2023/11/27 00:07:55;;;;;;;;;;;;;;;11.14;54.04;100164.13;4964698;27;98095;-64
2023/11/27 00:10:21;;;;;;;;;;;;;;;11.15;54.26;100168.41;4964484;27;118821;-67
2023/11/27 00:12:48;;;;;;;;;;;;;;;11.14;53.89;100164.13;4967868;27;128231;-64
2023/11/27 00:15:15;;;;;;;;;;;;;;;11.15;54.02;100171.13;4980214;27;98416;-64
2023/11/27 00:17:41;;;;;;;;;;;;;;;11.16;54.41;100163.81;4967893;27;114955;-67
2023/11/27 00:20:09;;;;;;;;;;;;;;;11.14;53.98;100168.72;4977410;27;100078;-64
2023/11/27 00:22:35;;;;;;;;;;;;;;;11.17;54.15;100168.16;4969599;27;98146;-64
2023/11/27 00:25:02;;;;;;;;;;;;;;;11.15;54.19;100157.63;4967828;27;99720;-67
2023/11/27 00:27:28;;;;;;;;;;;;;;;11.15;54.06;100165.72;4970010;27;98225;-68
2023/11/27 00:29:54;;;;;;;;;;;;;;;11.16;54.11;100155.72;4966370;27;98457;-65
2023/11/27 00:32:20;;;;;;;;;;;;;;;11.16;54.01;100161.13;4965874;27;99344;-65
2023/11/27 00:34:46;;;;;;;;;;;;;;;11.15;54.10;100148.72;4980237;27;98467;-64
2023/11/27 00:37:12;;;;;;;;;;;;;;;11.15;54.29;100136.03;4979710;27;109241;-64
2023/11/27 00:39:38;;;;;;;;;;;;;;;11.14;54.15;100147.94;4965208;27;114869;-66
2023/11/27 00:42:04;;;;;;;;;;;;;;;11.14;54.26;100131.75;4982500;27;114921;-67
2023/11/27 00:44:30;;;;;;;;;;;;;;;11.14;54.02;100126.34;4969057;27;98044;-67
2023/11/27 00:46:56;;;;;;;;;;;;;;;11.14;54.38;100131.75;4978679;27;100278;-64
2023/11/27 00:49:22;;;;;;;;;;;;;;;11.13;54.08;100127.44;4962371;27;99707;-67
2023/11/27 00:51:48;;;;;;;;;;;;;;;11.13;54.33;100138.25;4977858;27;98212;-67
2023/11/27 00:54:14;;;;;;;;;;;;;;;11.12;54.15;100131.22;4973129;27;120870;-64
2023/11/27 00:56:40;;;;;;;;;;;;;;;11.13;53.96;100129.34;4977821;27;98363;-64
2023/11/27 00:59:07;;;;;;;;;;;;;;;11.13;54.19;100137.44;4984458;27;99126;-64
2023/11/27 01:01:33;;;;;;;;;;;;;;;11.12;54.08;100135.78;4977240;27;101910;-64
2023/11/27 01:03:59;;;;;;;;;;;;;;;11.12;54.21;100128.53;4965397;27;97857;-67
2023/11/27 01:06:25;;;;;;;;;;;;;;;11.11;54.18;100134.19;4965236;27;126300;-67
2023/11/27 01:08:51;;;;;;;;;;;;;;;11.11;54.17;100136.88;4965913;27;98454;-67
2023/11/27 01:11:17;;;;;;;;;;;;;;;11.12;54.28;100142.03;4962578;27;99729;-68
2023/11/27 01:13:43;;;;;;;;;;;;;;;11.12;54.10;100135.78;4978644;27;98309;-67
2023/11/27 01:16:09;;;;;;;;;;;;;;;11.11;54.16;100132.31;4980534;27;123230;-68
2023/11/27 01:18:35;;;;;;;;;;;;;;;11.10;54.08;100122.59;4977172;27;118453;-68
2023/11/27 01:21:01;;;;;;;;;;;;;;;11.12;54.18;100125.00;4978757;27;116051;-64
2023/11/27 01:23:27;;;;;;;;;;;;;;;11.13;54.06;100132.03;4979859;27;122373;-67
2023/11/27 01:25:53;;;;;;;;;;;;;;;11.11;54.15;100124.22;4980943;27;107879;-68
2023/11/27 01:28:19;;;;;;;;;;;;;;;11.12;54.37;100116.91;4971344;27;98078;-68
2023/11/27 01:30:45;;;;;;;;;;;;;;;11.12;53.93;100116.91;4987540;27;99156;-64
2023/11/27 01:33:12;;;;;;;;;;;;;;;11.10;54.26;100111.81;4974255;27;105865;-67
2023/11/27 01:35:38;;;;;;;;;;;;;;;11.10;54.23;100114.50;4961937;27;98161;-64
2023/11/27 01:38:07;;;;;;;;;;;;;;;11.12;54.16;100103.44;4980510;27;127466;-69
2023/11/27 01:40:33;;;;;;;;;;;;;;;11.11;54.26;100105.31;5000827;27;125411;-64
2023/11/27 01:42:59;;;;;;;;;;;;;;;11.11;54.10;100097.22;4968290;27;98252;-65
2023/11/27 01:45:25;;;;;;;;;;;;;;;11.11;54.15;100091.84;4977098;27;98403;-64
2023/11/27 01:47:51;;;;;;;;;;;;;;;11.11;54.03;100093.72;4965205;27;130451;-68
2023/11/27 01:50:17;;;;;;;;;;;;;;;11.11;54.23;100093.72;4982480;27;98938;-67
2023/11/27 01:52:43;;;;;;;;;;;;;;;11.10;54.02;100087.53;4967603;27;119007;-64
2023/11/27 01:55:11;;;;;;;;;;;;;;;11.11;54.17;100093.72;4986336;27;102857;-67
2023/11/27 01:57:37;;;;;;;;;;;;;;;11.11;54.18;100093.72;4967201;27;99684;-67
2023/11/27 02:00:05;;;;;;;;;;;;;;;11.10;54.26;100079.44;4963894;27;110210;-67
2023/11/27 02:02:31;;;;;;;;;;;;;;;11.10;54.49;100076.75;4970415;27;98442;-67
2023/11/27 02:04:57;;;;;;;;;;;;;;;11.10;53.98;100079.44;4966171;27;98391;-67
2023/11/27 02:07:23;;;;;;;;;;;;;;;11.10;54.11;100079.44;4960130;27;98218;-64
2023/11/27 02:09:49;;;;;;;;;;;;;;;11.10;54.09;100076.75;4960513;27;98646;-64
2023/11/27 02:12:15;;;;;;;;;;;;;;;11.10;54.06;100078.63;4963239;27;98632;-64
2023/11/27 02:14:41;;;;;;;;;;;;;;;11.10;54.06;100074.03;4971977;27;99425;-64
2023/11/27 02:17:07;;;;;;;;;;;;;;;11.10;54.16;100075.94;4980317;27;98305;-67
2023/11/27 02:19:33;;;;;;;;;;;;;;;11.10;54.17;100078.63;4982014;27;98119;-67
2023/11/27 02:21:59;;;;;;;;;;;;;;;11.10;54.13;100078.63;4963846;27;123670;-64
2023/11/27 02:24:25;;;;;;;;;;;;;;;11.10;54.32;100070.53;4960965;27;98150;-67
2023/11/27 02:26:51;;;;;;;;;;;;;;;11.10;54.10;100075.94;4983376;27;122205;-64
2023/11/27 02:29:17;;;;;;;;;;;;;;;11.10;54.19;100067.84;4962784;27;123651;-68
2023/11/27 02:31:44;;;;;;;;;;;;;;;11.10;54.16;100074.03;4987498;27;98067;-67
2023/11/27 02:34:10;;;;;;;;;;;;;;;11.10;54.09;100073.25;4964322;27;116684;-67
2023/11/27 02:36:38;;;;;;;;;;;;;;;11.09;54.04;100063.56;4963813;27;98237;-67
2023/11/27 02:39:06;;;;;;;;;;;;;;;11.10;54.04;100078.63;4961849;27;98193;-64
2023/11/27 02:41:39;;;;;;;;;;;;;;;11.09;54.24;100069.75;4974820;27;98168;-65
2023/11/27 02:44:05;;;;;;;;;;;;;;;11.09;54.21;100071.63;4966600;27;98091;-67
2023/11/27 02:46:31;;;;;;;;;;;;;;;11.10;54.32;100078.63;4967480;27;98212;-64
2023/11/27 02:48:57;;;;;;;;;;;;;;;11.09;54.17;100068.94;4964367;27;104570;-67
2023/11/27 02:51:23;;;;;;;;;;;;;;;11.10;54.08;100073.25;4980612;27;98247;-64
2023/11/27 02:53:49;;;;;;;;;;;;;;;11.09;54.28;100066.25;4994811;27;108206;-67
2023/11/27 02:56:15;;;;;;;;;;;;;;;11.09;54.21;100060.84;4974610;27;98309;-68
2023/11/27 02:58:41;;;;;;;;;;;;;;;11.07;54.28;100061.91;4978321;27;133976;-64
2023/11/27 03:01:07;;;;;;;;;;;;;;;11.09;53.99;100063.56;4964431;27;98135;-68
2023/11/27 03:03:35;;;;;;;;;;;;;;;11.07;54.18;100063.81;4978353;27;99254;-64
2023/11/27 03:06:01;;;;;;;;;;;;;;;11.08;54.07;100060.03;4969669;27;99565;-68
2023/11/27 03:08:27;;;;;;;;;;;;;;;11.07;54.14;100051.13;4978656;27;98147;-64
2023/11/27 03:10:53;;;;;;;;;;;;;;;11.07;54.09;100053.81;4998744;27;97967;-64
2023/11/27 03:13:19;;;;;;;;;;;;;;;11.06;54.12;100048.72;4975950;27;98545;-64
2023/11/27 03:15:45;;;;;;;;;;;;;;;11.07;54.17;100042.22;4975256;27;127828;-68
2023/11/27 03:18:11;;;;;;;;;;;;;;;11.05;53.94;100050.63;4964176;27;97828;-64
2023/11/27 03:20:37;;;;;;;;;;;;;;;11.05;53.98;100042.53;4964197;27;109934;-65
2023/11/27 03:23:04;;;;;;;;;;;;;;;11.06;54.11;100037.94;4997194;27;98210;-64
2023/11/27 03:25:29;;;;;;;;;;;;;;;11.04;53.87;100032.00;4978859;27;104466;-64
2023/11/27 03:27:55;;;;;;;;;;;;;;;11.04;54.32;100035.53;4963866;27;112769;-65
2023/11/27 03:30:22;;;;;;;;;;;;;;;11.04;54.13;100026.59;4961339;27;122701;-68
2023/11/27 03:32:50;;;;;;;;;;;;;;;11.03;54.14;100031.19;4975941;27;99338;-64
2023/11/27 03:35:16;;;;;;;;;;;;;;;11.03;54.31;100031.19;4979101;27;98475;-68
2023/11/27 03:37:43;;;;;;;;;;;;;;;11.03;54.17;100027.69;5000628;27;98142;-64
2023/11/27 03:40:09;;;;;;;;;;;;;;;11.03;54.05;100030.41;4982969;27;97823;-68
2023/11/27 03:42:35;;;;;;;;;;;;;;;11.02;53.94;100029.59;4978159;27;99901;-66
2023/11/27 03:45:01;;;;;;;;;;;;;;;11.03;54.23;100027.69;4964948;27;98124;-68
2023/11/27 03:47:27;;;;;;;;;;;;;;;11.03;54.17;100025.00;4971908;27;99135;-68
2023/11/27 03:49:54;;;;;;;;;;;;;;;11.03;54.19;100023.09;4968794;27;120507;-64
2023/11/27 03:52:22;;;;;;;;;;;;;;;11.03;53.96;100022.31;4968597;27;99967;-64
2023/11/27 03:54:48;;;;;;;;;;;;;;;11.03;54.23;100015.00;4966947;27;98266;-64
2023/11/27 03:57:15;;;;;;;;;;;;;;;11.03;54.13;100019.59;4986484;27;99765;-64
2023/11/27 03:59:41;;;;;;;;;;;;;;;11.02;54.02;100016.09;4973902;27;98195;-67
2023/11/27 04:02:09;;;;;;;;;;;;;;;11.03;54.12;100011.50;4980195;27;98142;-64
2023/11/27 04:04:38;;;;;;;;;;;;;;;11.04;54.06;100010.41;4969287;27;100540;-64
2023/11/27 04:07:05;;;;;;;;;;;;;;;11.03;54.04;100008.81;4981745;27;98675;-68
2023/11/27 04:09:31;;;;;;;;;;;;;;;11.05;53.88;100003.97;4982610;27;98534;-65
2023/11/27 04:11:58;;;;;;;;;;;;;;;11.03;54.04;99992.63;4978861;27;98639;-68
2023/11/27 04:14:24;;;;;;;;;;;;;;;11.04;54.08;100005.84;4983460;27;98018;-65
2023/11/27 04:16:50;;;;;;;;;;;;;;;11.04;54.21;99996.94;4960952;27;99243;-65
2023/11/27 04:19:16;;;;;;;;;;;;;;;11.04;54.06;99999.63;4965660;27;102882;-68
2023/11/27 04:21:42;;;;;;;;;;;;;;;11.03;54.00;99993.44;4977676;27;99223;-68
2023/11/27 04:24:08;;;;;;;;;;;;;;;11.02;54.06;99986.44;4981494;27;99569;-68
2023/11/27 04:26:34;;;;;;;;;;;;;;;11.05;53.97;99985.09;4972297;27;98138;-64
2023/11/27 04:29:00;;;;;;;;;;;;;;;11.05;54.10;99982.38;4987100;27;98583;-64
2023/11/27 04:31:26;;;;;;;;;;;;;;;11.04;53.96;99976.19;4959624;27;100144;-64
2023/11/27 04:33:52;;;;;;;;;;;;;;;11.04;53.96;99976.19;4960255;27;99575;-68
2023/11/27 04:36:21;;;;;;;;;;;;;;;11.04;54.03;99969.97;4961055;27;97907;-68
2023/11/27 04:38:48;;;;;;;;;;;;;;;11.06;54.00;99979.41;4977012;27;98016;-67
2023/11/27 04:41:14;;;;;;;;;;;;;;;11.05;53.99;99977.78;4963108;27;99372;-64
2023/11/27 04:43:40;;;;;;;;;;;;;;;11.06;54.13;99965.09;4988898;27;98899;-64
2023/11/27 04:46:07;;;;;;;;;;;;;;;11.06;53.98;99967.81;4966947;27;99189;-68
2023/11/27 04:48:34;;;;;;;;;;;;;;;11.06;54.10;99967.81;4964057;27;97846;-67
2023/11/27 04:51:00;;;;;;;;;;;;;;;11.05;54.22;99963.50;4993607;27;120948;-64
2023/11/27 04:53:26;;;;;;;;;;;;;;;11.06;54.29;99965.91;4951299;27;115836;-64
2023/11/27 04:55:52;;;;;;;;;;;;;;;11.05;54.39;99960.81;4997937;27;128304;-67
2023/11/27 04:58:18;;;;;;;;;;;;;;;11.06;54.09;99968.59;4974890;27;115385;-67
2023/11/27 05:00:44;;;;;;;;;;;;;;;11.07;54.14;99972.91;4959922;27;128406;-67
2023/11/27 05:03:10;;;;;;;;;;;;;;;11.09;54.07;99963.75;4962115;27;131436;-64
2023/11/27 05:05:36;;;;;;;;;;;;;;;11.09;54.15;99961.84;4966868;27;129736;-67
2023/11/27 05:08:02;;;;;;;;;;;;;;;11.09;54.12;99959.16;4980791;27;98625;-67
2023/11/27 05:10:28;;;;;;;;;;;;;;;11.09;54.15;99955.66;4972174;27;110070;-67
2023/11/27 05:12:55;;;;;;;;;;;;;;;11.09;54.10;99953.75;4979362;27;98669;-64
2023/11/27 05:15:21;;;;;;;;;;;;;;;11.10;54.10;99957.25;4967411;27;98796;-68
2023/11/27 05:17:49;;;;;;;;;;;;;;;11.10;54.09;99958.06;4975027;27;98244;-67
2023/11/27 05:20:15;;;;;;;;;;;;;;;11.10;54.26;99952.66;4982289;27;98117;-67
2023/11/27 05:22:41;;;;;;;;;;;;;;;11.12;53.93;99953.19;4962365;27;128306;-64
2023/11/27 05:25:09;;;;;;;;;;;;;;;11.12;54.07;99946.97;4954354;27;114448;-67
2023/11/27 05:27:34;;;;;;;;;;;;;;;11.12;54.03;99945.09;4974688;27;97942;-69
2023/11/27 05:30:00;;;;;;;;;;;;;;;11.13;54.14;99949.41;4964705;27;130495;-67
2023/11/27 05:32:26;;;;;;;;;;;;;;;11.14;54.05;99952.91;4957802;27;99853;-67
2023/11/27 05:34:52;;;;;;;;;;;;;;;11.13;54.00;99944.00;4964801;27;98804;-67
2023/11/27 05:37:18;;;;;;;;;;;;;;;11.15;54.03;99941.03;4991905;27;101936;-64
2023/11/27 05:39:44;;;;;;;;;;;;;;;11.15;54.25;99935.63;4979501;27;103394;-65
2023/11/27 05:42:11;;;;;;;;;;;;;;;11.16;54.03;99937.22;4975873;27;126976;-68
2023/11/27 05:44:38;;;;;;;;;;;;;;;11.16;54.05;99937.22;4979111;27;98359;-65
2023/11/27 05:47:04;;;;;;;;;;;;;;;11.16;54.09;99935.38;4976857;27;98394;-64
2023/11/27 05:49:31;;;;;;;;;;;;;;;11.15;54.06;99928.34;4959336;27;100018;-68
2023/11/27 05:51:57;;;;;;;;;;;;;;;11.17;54.02;99931.56;4988347;27;99293;-67
2023/11/27 05:54:24;;;;;;;;;;;;;;;11.17;54.23;99931.56;4977321;27;98090;-67
2023/11/27 05:56:50;;;;;;;;;;;;;;;11.18;53.99;99927.78;4961145;27;98327;-67
2023/11/27 05:59:17;;;;;;;;;;;;;;;11.18;54.05;99925.06;4977315;27;98533;-67
2023/11/27 06:01:43;;;;;;;;;;;;;;;11.19;54.13;99925.88;4976955;27;98452;-66
2023/11/27 06:04:09;;;;;;;;;;;;;;;11.19;53.96;99923.19;4949254;27;98276;-64
2023/11/27 06:06:35;;;;;;;;;;;;;;;11.20;54.33;99924.78;4970923;27;121878;-64
2023/11/27 06:09:01;;;;;;;;;;;;;;;11.20;54.30;99927.47;4977256;27;128666;-64
2023/11/27 06:11:27;;;;;;;;;;;;;;;11.20;54.08;99928.31;4982862;27;99485;-63
2023/11/27 06:13:53;;;;;;;;;;;;;;;11.21;54.07;99929.09;4980409;27;126432;-67
2023/11/27 06:16:20;;;;;;;;;;;;;;;11.19;54.32;99923.97;4971476;27;98161;-64
2023/11/27 06:18:46;;;;;;;;;;;;;;;11.20;53.96;99928.31;4976426;27;98725;-64
2023/11/27 06:21:13;;;;;;;;;;;;;;;11.20;54.16;99931.00;4963017;27;100521;-63
2023/11/27 06:23:40;;;;;;;;;;;;;;;11.20;54.13;99925.63;4976586;27;98165;-66
2023/11/27 06:26:06;;;;;;;;;;;;;;;11.20;54.29;99922.91;4968318;27;98703;-67
2023/11/27 06:28:32;;;;;;;;;;;;;;;11.22;54.01;99936.09;4978748;27;112293;-63
2023/11/27 06:30:58;;;;;;;;;;;;;;;11.21;54.07;99921.00;4961674;27;128373;-67
2023/11/27 06:33:26;;;;;;;;;;;;;;;11.20;54.10;99928.31;4965283;27;99563;-63
2023/11/27 06:35:53;;;;;;;;;;;;;;;11.22;54.24;99928.00;4980372;27;98466;-67
2023/11/27 06:38:19;;;;;;;;;;;;;;;11.22;54.12;99922.63;4966058;27;99946;-63
2023/11/27 06:40:48;;;;;;;;;;;;;;;11.23;54.30;99921.53;4987668;27;99640;-67
2023/11/27 06:43:15;;;;;;;;;;;;;;;11.24;54.14;99918.56;4980541;27;98202;-67
2023/11/27 06:45:41;;;;;;;;;;;;;;;11.25;54.02;99913.97;4964895;27;98030;-63
2023/11/27 06:48:06;;;;;;;;;;;;;;;11.25;53.85;99912.06;4963821;27;98305;-67
2023/11/27 06:50:32;;;;;;;;;;;;;;;11.26;54.02;99912.88;4964250;27;129382;-64
2023/11/27 06:52:58;;;;;;;;;;;;;;;11.27;54.05;99911.78;4958972;27;127616;-67
2023/11/27 06:55:24;;;;;;;;;;;;;;;11.27;54.04;99912.56;4968687;27;98071;-64
2023/11/27 06:57:50;;;;;;;;;;;;;;;11.27;54.08;99912.56;4976842;27;111423;-64
2023/11/27 07:00:17;;;;;;;;;;;;;;;11.27;54.05;99909.06;4979340;27;105384;-67
2023/11/27 07:02:43;;;;;;;;;;;;;;;11.28;54.14;99908.81;4958110;27;98049;-67
2023/11/27 07:05:09;;;;;;;;;;;;;;;11.27;54.12;99907.16;4959256;27;98161;-63
2023/11/27 07:07:35;;;;;;;;;;;;;;;11.29;53.96;99913.09;4963691;27;99676;-67
2023/11/27 07:10:02;;;;;;;;;;;;;;;11.28;54.16;99908.81;4974569;27;113092;-64
2023/11/27 07:12:29;;;;;;;;;;;;;;;11.29;54.14;99905.00;4963482;27;99188;-64
2023/11/27 07:14:55;;;;;;;;;;;;;;;11.30;54.09;99903.09;4979009;27;98384;-64
2023/11/27 07:17:21;;;;;;;;;;;;;;;11.30;53.70;99901.22;4960217;27;98692;-67
2023/11/27 07:19:47;;;;;;;;;;;;;;;11.33;54.10;99904.44;4987207;27;98190;-67
2023/11/27 07:22:13;;;;;;;;;;;;;;;11.32;54.07;99898.25;4964607;27;99565;-68
2023/11/27 07:24:39;;;;;;;;;;;;;;;11.34;53.96;99897.94;4962446;27;98125;-64
2023/11/27 07:27:05;;;;;;;;;;;;;;;11.34;53.97;99895.25;4977945;27;99383;-64
2023/11/27 07:29:32;;;;;;;;;;;;;;;11.36;54.00;99901.97;4957647;27;121096;-68
2023/11/27 07:31:57;;;;;;;;;;;;;;;11.38;53.98;99896.28;4976295;27;110609;-68
2023/11/27 07:34:26;;;;;;;;;;;;;;;11.40;54.01;99891.44;4980472;27;101037;-68
2023/11/27 07:36:52;;;;;;;;;;;;;;;11.40;54.11;99886.81;4964635;27;99458;-64
2023/11/27 07:39:19;;;;;;;;;;;;;;;11.42;54.11;99894.63;4953467;27;99856;-64
2023/11/27 07:41:48;;;;;;;;;;;;;;;11.43;54.02;99899.72;4983132;27;97936;-68
2023/11/27 07:44:15;;;;;;;;;;;;;;;11.43;53.87;99891.63;4962564;27;101647;-68
2023/11/27 07:46:41;;;;;;;;;;;;;;;11.44;53.85;99895.97;4977420;27;99781;-64
2023/11/27 07:49:08;;;;;;;;;;;;;;;11.46;54.14;99899.16;4965302;27;98235;-64
2023/11/27 07:51:34;;;;;;;;;;;;;;;11.45;53.94;99885.97;4979716;27;97961;-68
2023/11/27 07:54:01;;;;;;;;;;;;;;;11.47;53.99;99892.66;4975433;27;98186;-68
2023/11/27 07:56:32;;;;;;;;;;;;;;;11.48;53.90;99893.50;4991646;27;98659;-68
2023/11/27 07:58:58;;;;;;;;;;;;;;;11.49;54.14;99895.09;4980989;27;98725;-64
2023/11/27 08:01:24;;;;;;;;;;;;;;;11.49;53.90;99885.09;4980750;27;97960;-64
2023/11/27 08:03:50;;;;;;;;;;;;;;;11.50;54.04;99885.91;4965541;27;98009;-68
2023/11/27 08:06:19;;;;;;;;;;;;;;;11.50;54.11;99880.50;4963394;27;120922;-68
2023/11/27 08:08:45;;;;;;;;;;;;;;;11.51;54.07;99887.50;4965577;27;98397;-65
2023/11/27 08:11:11;;;;;;;;;;;;;;;11.52;53.88;99887.22;4961921;27;98919;-65
2023/11/27 08:13:41;;;;;;;;;;;;;;;11.55;53.82;99877.72;4954521;27;121730;-68
2023/11/27 08:16:07;;;;;;;;;;;;;;;11.60;53.89;99871.50;4976812;27;103815;-68
2023/11/27 08:18:33;;;;;;;;;;;;;;;11.64;53.91;99883.31;4961387;27;98355;-65
2023/11/27 08:21:01;;;;;;;;;;;;;;;11.66;53.76;99870.31;4954124;27;127523;-68
2023/11/27 08:23:27;;;;;;;;;;;;;;;11.70;53.93;99872.16;4967233;27;98292;-68
2023/11/27 08:25:53;;;;;;;;;;;;;;;11.72;53.92;99871.88;4968051;27;127480;-65
2023/11/27 08:28:21;;;;;;;;;;;;;;;11.76;53.81;99862.13;4981633;27;98361;-68
2023/11/27 08:30:47;;;;;;;;;;;;;;;11.79;53.91;99854.25;4980466;27;98677;-68
2023/11/27 08:33:14;;;;;;;;;;;;;;;11.82;53.92;99858.25;4967414;27;98570;-68
2023/11/27 08:35:40;;;;;;;;;;;;;;;11.86;53.75;99855.78;4982452;27;97739;-68
2023/11/27 08:38:06;;;;;;;;;;;;;;;11.90;53.87;99852.22;4982763;27;98700;-68
2023/11/27 08:40:32;;;;;;;;;;;;;;;11.93;53.83;99854.34;4971363;27;98397;-64
2023/11/27 08:43:00;;;;;;;;;;;;;;;11.98;53.62;99850.75;4961919;27;98629;-68
2023/11/27 08:45:26;;;;;;;;;;;;;;;12.03;53.61;99850.72;4965111;27;99677;-68
2023/11/27 08:47:52;;;;;;;;;;;;;;;12.05;53.66;99845.81;4986734;27;119381;-64
2023/11/27 08:50:19;;;;;;;;;;;;;;;12.06;53.76;99842.00;4984076;27;97903;-64
2023/11/27 08:52:45;;;;;;;;;;;;;;;12.08;53.62;99842.53;4996164;27;100702;-64
2023/11/27 08:55:11;;;;;;;;;;;;;;;12.10;53.65;99845.72;4984353;27;98738;-65
2023/11/27 08:57:37;;;;;;;;;;;;;;;12.12;53.75;99837.34;4969380;27;99617;-68
2023/11/27 09:00:11;;;;;;;;;;;;;;;12.13;53.76;99831.66;4965765;27;98050;-64
2023/11/27 09:02:38;;;;;;;;;;;;;;;12.13;53.62;99833.53;4977347;27;98115;-64
2023/11/27 09:05:07;;;;;;;;;;;;;;;12.13;53.62;99828.94;4972515;27;98010;-68
2023/11/27 09:07:34;;;;;;;;;;;;;;;12.15;53.68;99825.97;4971755;27;98728;-68
2023/11/27 09:10:00;;;;;;;;;;;;;;;12.17;53.66;99824.56;4984022;27;98477;-64
2023/11/27 09:12:26;;;;;;;;;;;;;;;12.19;53.68;99822.38;4982019;27;106156;-64
2023/11/27 09:14:52;;;;;;;;;;;;;;;12.18;53.80;99826.19;4978449;27;128065;-64
2023/11/27 09:17:18;;;;;;;;;;;;;;;12.18;53.71;99828.88;4992405;27;98111;-64
2023/11/27 09:19:45;;;;;;;;;;;;;;;12.17;53.80;99818.34;4966480;27;104562;-65
2023/11/27 09:22:11;;;;;;;;;;;;;;;12.16;53.59;99819.47;4985600;27;98315;-68
2023/11/27 09:24:40;;;;;;;;;;;;;;;12.17;53.75;99826.47;4971259;27;98255;-64
2023/11/27 09:27:06;;;;;;;;;;;;;;;12.17;53.87;99827.25;4983064;27;100017;-68
2023/11/27 09:29:35;;;;;;;;;;;;;;;12.16;53.74;99822.16;4966991;27;99199;-64
2023/11/27 09:32:04;;;;;;;;;;;;;;;12.17;53.90;99821.06;4992206;27;120251;-68
2023/11/27 09:34:30;;;;;;;;;;;;;;;12.17;53.64;99813.75;4966409;27;98045;-68
2023/11/27 09:36:57;;;;;;;;;;;;;;;12.20;53.77;99807.75;4978273;27;112729;-64
2023/11/27 09:39:23;;;;;;;;;;;;;;;12.22;54.00;99805.59;4964055;27;99710;-64
2023/11/27 09:41:49;;;;;;;;;;;;;;;12.26;53.89;99811.19;4982137;27;98194;-68
2023/11/27 09:44:18;;;;;;;;;;;;;;;12.29;53.77;99795.19;4994979;27;98916;-64
2023/11/27 09:46:46;;;;;;;;;;;;;;;12.34;53.81;99788.09;4980670;27;98820;-68
2023/11/27 09:49:16;;;;;;;;;;;;;;;12.38;53.65;99797.22;4978847;27;98151;-68
2023/11/27 09:51:46;;;;;;;;;;;;;;;12.40;53.81;99787.72;4971183;27;98423;-64
2023/11/27 09:54:12;;;;;;;;;;;;;;;12.46;53.92;99780.34;4973853;27;98163;-68
2023/11/27 09:56:38;;;;;;;;;;;;;;;12.48;53.88;99778.94;4965478;27;99520;-65
2023/11/27 09:59:04;;;;;;;;;;;;;;;12.51;53.70;99774.84;4964198;27;98102;-68
2023/11/27 10:01:32;;;;;;;;;;;;;;;12.55;53.73;99765.03;4967560;27;99704;-68
2023/11/27 10:04:06;;;;;;;;;;;;;;;12.57;53.46;99760.13;4980109;27;98565;-65
2023/11/27 10:06:33;;;;;;;;;;;;;;;12.60;53.40;99758.75;4969839;27;100040;-68
2023/11/27 10:09:07;;;;;;;;;;;;;;;12.61;53.76;99758.44;4958425;27;98548;-68
2023/11/27 10:11:33;;;;;;;;;;;;;;;12.61;53.81;99750.31;4962386;27;99276;-67
2023/11/27 10:14:05;;;;;;;;;;;;;;;12.61;53.59;99738.72;4967132;27;99428;-68
2023/11/27 10:16:34;;;;;;;;;;;;;;;12.61;53.75;99738.72;4984692;27;99520;-68
2023/11/27 10:19:07;;;;;;;;;;;;;;;12.61;53.93;99738.72;4965164;27;119422;-65
2023/11/27 10:21:34;;;;;;;;;;;;;;;12.59;53.92;99725.50;4964300;27;97911;-65
2023/11/27 10:24:10;;;;;;;;;;;;;;;12.59;53.90;99732.81;4967025;27;98373;-64
2023/11/27 10:26:37;;;;;;;;;;;;;;;12.60;53.67;99729.00;4982743;27;98171;-64
2023/11/27 10:29:03;;;;;;;;;;;;;;;12.59;53.75;99730.09;4964616;27;98271;-68
2023/11/27 10:31:31;;;;;;;;;;;;;;;12.59;53.64;99727.41;4969681;27;98400;-64
2023/11/27 10:33:57;;;;;;;;;;;;;;;12.59;53.60;99722.00;4969610;27;99590;-68
2023/11/27 10:36:25;;;;;;;;;;;;;;;12.61;53.93;99717.09;4964247;27;98153;-64
2023/11/27 10:39:18;;;;;;;;;;;;;;;12.63;53.98;99712.19;4957839;27;99497;-68
2023/11/27 10:41:45;;;;;;;;;;;;;;;12.66;53.83;99714.31;4966101;27;98160;-64
2023/11/27 10:44:12;;;;;;;;;;;;;;;12.68;53.67;99702.06;4974843;27;98449;-64
2023/11/27 10:46:43;;;;;;;;;;;;;;;12.72;53.68;99699.56;4963109;27;98129;-65
2023/11/27 10:49:12;;;;;;;;;;;;;;;12.74;53.49;99706.28;4975800;27;111763;-64
2023/11/27 10:51:38;;;;;;;;;;;;;;;12.74;53.88;99695.47;4978167;27;98006;-65
2023/11/27 10:54:04;;;;;;;;;;;;;;;12.75;53.57;99691.66;4962883;27;98106;-64
2023/11/27 10:56:30;;;;;;;;;;;;;;;12.74;54.00;99698.19;4969269;27;127502;-64
2023/11/27 10:59:05;;;;;;;;;;;;;;;12.76;54.00;99695.16;4965796;27;99490;-68
2023/11/27 11:01:41;;;;;;;;;;;;;;;12.80;53.51;99688.06;4963704;27;98475;-64
2023/11/27 11:04:27;;;;;;;;;;;;;;;12.81;53.71;99695.09;4976791;27;98381;-64
2023/11/27 11:06:55;;;;;;;;;;;;;;;12.80;53.58;99679.94;4981316;27;99420;-64
2023/11/27 11:09:25;;;;;;;;;;;;;;;12.81;53.85;99686.97;4979089;27;98075;-64
2023/11/27 11:11:52;;;;;;;;;;;;;;;12.80;53.76;99671.81;4971918;27;98159;-64
2023/11/27 11:14:24;;;;;;;;;;;;;;;12.82;53.75;99668.84;4976513;27;98337;-65
2023/11/27 11:17:17;;;;;;;;;;;;;;;12.85;54.00;99670.91;4982087;27;98109;-68
2023/11/27 11:20:13;;;;;;;;;;;;;;;12.87;53.80;99672.22;4979088;27;114140;-64
2023/11/27 11:23:06;;;;;;;;;;;;;;;12.91;53.63;99672.44;4950800;27;98639;-68
2023/11/27 11:25:51;;;;;;;;;;;;;;;12.99;53.89;99660.91;4994455;27;98835;-64
2023/11/27 11:28:49;;;;;;;;;;;;;;;13.06;53.58;99655.88;4980844;27;98179;-64
2023/11/27 11:31:15;;;;;;;;;;;;;;;13.13;53.71;99653.56;4987433;27;98094;-68
2023/11/27 11:33:42;;;;;;;;;;;;;;;13.15;53.42;99648.66;4970637;27;99680;-68
2023/11/27 11:36:12;;;;;;;;;;;;;;;13.13;53.49;99642.75;4981275;27;99752;-64
2023/11/27 11:38:44;;;;;;;;;;;;;;;13.12;53.57;99638.44;4971914;27;100407;-64
2023/11/27 11:41:09;;;;;;;;;;;;;;;13.15;53.63;99637.03;4980676;27;98591;-68
2023/11/27 11:43:42;;;;;;;;;;;;;;;13.19;53.42;99633.41;4979981;27;122768;-64
2023/11/27 11:46:18;;;;;;;;;;;;;;;13.24;53.44;99624.41;4968679;27;98387;-68
2023/11/27 11:48:52;;;;;;;;;;;;;;;13.19;53.92;99616.38;4959386;27;99461;-68
2023/11/27 11:51:20;;;;;;;;;;;;;;;13.19;53.94;99614.47;4966826;27;98179;-68
2023/11/27 11:53:48;;;;;;;;;;;;;;;13.19;53.70;99611.75;4967079;27;98252;-68
2023/11/27 11:56:22;;;;;;;;;;;;;;;13.15;53.99;99613.47;4980982;27;98448;-64
2023/11/27 11:58:56;;;;;;;;;;;;;;;13.13;53.79;99613.00;4979444;27;99780;-68
2023/11/27 12:01:24;;;;;;;;;;;;;;;13.10;53.70;99602.78;4969741;27;98962;-64
2023/11/27 12:03:50;;;;;;;;;;;;;;;13.07;53.96;99595.25;4978978;27;98193;-68
2023/11/27 12:06:16;;;;;;;;;;;;;;;13.05;54.13;99599.34;4980935;27;121219;-68
2023/11/27 12:08:45;;;;;;;;;;;;;;;12.99;53.75;99588.66;4966444;27;100862;-64
2023/11/27 12:11:14;;;;;;;;;;;;;;;12.96;54.14;99574.94;4987361;27;99313;-68
2023/11/27 12:13:43;;;;;;;;;;;;;;;12.92;53.68;99573.94;4999185;27;98770;-68
2023/11/27 12:16:12;;;;;;;;;;;;;;;12.90;53.98;99568.06;4972094;27;98207;-64
2023/11/27 12:18:43;;;;;;;;;;;;;;;12.88;54.28;99567.56;4965662;27;98189;-67
2023/11/27 12:21:22;;;;;;;;;;;;;;;12.85;54.27;99570.84;4964515;27;98062;-68
2023/11/27 12:23:50;;;;;;;;;;;;;;;12.85;54.24;99563.56;4959892;27;98328;-64
2023/11/27 12:26:28;;;;;;;;;;;;;;;12.85;54.20;99560.03;4963700;27;98473;-64
2023/11/27 12:28:54;;;;;;;;;;;;;;;12.84;53.83;99553.03;4953299;27;97886;-68
2023/11/27 12:31:27;;;;;;;;;;;;;;;12.83;54.02;99554.94;4961710;27;108462;-64
2023/11/27 12:33:53;;;;;;;;;;;;;;;12.83;53.79;99554.16;4963793;27;100929;-64
2023/11/27 12:36:22;;;;;;;;;;;;;;;12.83;54.19;99552.25;4951474;27;118368;-68
2023/11/27 12:38:52;;;;;;;;;;;;;;;12.82;53.89;99542.53;4951474;27;98459;-64
2023/11/27 12:41:24;;;;;;;;;;;;;;;12.83;54.22;99535.22;4951033;27;99302;-64